Time;durP1;ratioP1;P1;durP2;ratioP2;P2;SDS_P1;SDS_P2;PMS_P1;PMS_P2;Temp;Humidity;BMP_temperature;BMP_pressure;BME280_temperature;BME280_humidity;BME280_pressure;Samples;Min_cycle;Max_cycle;Signal;HPM_P1;HPM_P2
2021/08/17 00:00:48;;;;;;;10.38;3.80;;;15.00;99.90;;;;;;4153466;28;21668;-72
2021/08/17 00:02:49;;;;;;;10.82;4.18;;;15.00;99.90;;;;;;4156081;28;20498;-72
2021/08/17 00:04:49;;;;;;;8.10;4.03;;;15.10;99.90;;;;;;4144026;28;20038;-71
2021/08/17 00:06:50;;;;;;;9.75;4.25;;;15.10;99.90;;;;;;4148849;28;20112;-72
2021/08/17 00:08:51;;;;;;;7.40;3.78;;;15.10;99.90;;;;;;4151718;28;20042;-72
2021/08/17 00:10:51;;;;;;;10.55;4.07;;;15.00;99.90;;;;;;4158329;28;20132;-72
2021/08/17 00:12:52;;;;;;;8.93;3.38;;;15.00;99.90;;;;;;4156610;28;20046;-71
2021/08/17 00:14:52;;;;;;;7.28;3.65;;;15.00;99.90;;;;;;4156608;28;20038;-71
2021/08/17 00:16:53;;;;;;;7.65;3.90;;;15.00;99.90;;;;;;4158260;28;20061;-72
2021/08/17 00:18:53;;;;;;;8.32;3.58;;;15.00;99.90;;;;;;4151653;28;20030;-72
2021/08/17 00:20:54;;;;;;;9.55;4.25;;;15.10;99.90;;;;;;4145298;28;20665;-71
2021/08/17 00:22:55;;;;;;;10.32;3.97;;;15.00;99.90;;;;;;4144970;28;20033;-72
2021/08/17 00:24:56;;;;;;;9.07;4.13;;;15.00;99.90;;;;;;4144777;28;20142;-72
2021/08/17 00:26:56;;;;;;;7.22;3.33;;;14.90;99.90;;;;;;4150622;28;20037;-72
2021/08/17 00:28:57;;;;;;;11.88;4.78;;;14.90;99.90;;;;;;4159732;28;20112;-71
2021/08/17 00:30:57;;;;;;;7.75;3.67;;;14.90;99.90;;;;;;4161523;28;20030;-71
2021/08/17 00:32:58;;;;;;;12.43;4.38;;;14.90;99.90;;;;;;4160833;28;20076;-72
2021/08/17 00:34:59;;;;;;;9.77;4.53;;;14.90;99.90;;;;;;4160808;28;20505;-71
2021/08/17 00:37:00;;;;;;;10.35;4.30;;;14.80;99.90;;;;;;4160914;28;20047;-72
2021/08/17 00:39:01;;;;;;;9.02;3.42;;;14.80;99.90;;;;;;4159324;28;20518;-71
2021/08/17 00:41:01;;;;;;;8.50;3.95;;;14.80;99.90;;;;;;4160713;28;20049;-72
2021/08/17 00:43:02;;;;;;;8.77;4.43;;;14.80;99.90;;;;;;4159562;28;20076;-72
2021/08/17 00:45:03;;;;;;;8.95;4.40;;;14.80;99.90;;;;;;4151377;28;20045;-71
2021/08/17 00:47:04;;;;;;;8.98;4.10;;;14.80;99.90;;;;;;4142512;28;20034;-72
2021/08/17 00:49:04;;;;;;;8.90;4.10;;;14.80;99.90;;;;;;4132598;28;20030;-71
2021/08/17 00:51:08;;;;;;;7.45;4.05;;;14.90;99.90;;;;;;4136580;28;20030;-71
2021/08/17 00:53:11;;;;;;;10.98;4.35;;;14.90;99.90;;;;;;4151984;28;20748;-71
2021/08/17 00:55:12;;;;;;;;;;;14.80;99.90;;;;;;4154076;28;20061;-71
2021/08/17 00:57:13;;;;;;;10.10;4.07;;;14.90;99.90;;;;;;4159344;28;19920;-71
2021/08/17 00:59:17;;;;;;;17.75;4.43;;;14.90;99.90;;;;;;4160409;28;20129;-72
2021/08/17 01:01:19;;;;;;;9.00;4.75;;;14.90;99.90;;;;;;4149659;28;20057;-71
2021/08/17 01:03:19;;;;;;;8.38;4.32;;;14.90;99.90;;;;;;4160707;28;20041;-71
2021/08/17 01:05:30;;;;;;;10.30;5.13;;;14.90;99.90;;;;;;4152224;28;20100;-71
2021/08/17 01:07:31;;;;;;;9.95;5.32;;;14.90;99.90;;;;;;4158403;28;20033;-71
2021/08/17 01:09:31;;;;;;;10.27;5.55;;;14.80;99.90;;;;;;4160687;28;20039;-71
2021/08/17 01:11:32;;;;;;;11.30;6.03;;;14.80;99.90;;;;;;4160365;28;20498;-71
2021/08/17 01:13:33;;;;;;;17.45;7.05;;;14.80;99.90;;;;;;4160629;28;20397;-71
2021/08/17 01:15:33;;;;;;;14.13;6.28;;;14.80;99.90;;;;;;4158976;28;20033;-72
2021/08/17 01:17:34;;;;;;;18.73;7.68;;;14.80;99.90;;;;;;4160021;28;20631;-71
2021/08/17 01:19:36;;;;;;;14.57;7.70;;;14.80;99.90;;;;;;4158702;28;20033;-71
2021/08/17 01:21:37;;;;;;;13.50;7.18;;;14.70;99.90;;;;;;4160027;28;20041;-71
2021/08/17 01:23:38;;;;;;;16.42;8.02;;;14.80;99.90;;;;;;4157026;28;20036;-72
2021/08/17 01:25:40;;;;;;;19.17;8.70;;;14.80;99.90;;;;;;4158765;28;20128;-71
2021/08/17 01:27:42;;;;;;;19.65;9.35;;;14.70;99.90;;;;;;4141637;28;20041;-72
2021/08/17 01:29:43;;;;;;;18.23;9.10;;;14.70;99.90;;;;;;4142161;28;20046;-71
2021/08/17 01:31:44;;;;;;;15.75;7.90;;;14.70;99.90;;;;;;4142749;28;20057;-71
2021/08/17 01:33:44;;;;;;;18.92;10.00;;;14.70;99.90;;;;;;4144080;28;20627;-71
2021/08/17 01:35:45;;;;;;;21.83;10.43;;;14.70;99.90;;;;;;4142468;28;20046;-71
2021/08/17 01:37:46;;;;;;;19.02;9.02;;;14.70;99.90;;;;;;4141829;28;20142;-72
2021/08/17 01:40:01;;;;;;;18.17;9.80;;;14.80;99.90;;;;;;4141745;28;20038;-71
2021/08/17 01:42:01;;;;;;;18.70;10.18;;;14.80;99.90;;;;;;4159009;28;20071;-71
2021/08/17 01:44:12;;;;;;;21.80;11.10;;;14.70;99.90;;;;;;4143890;28;20054;-71
2021/08/17 01:46:13;;;;;;;21.42;11.32;;;14.70;99.90;;;;;;4141584;28;20129;-72
2021/08/17 01:48:14;;;;;;;23.05;11.65;;;14.70;99.90;;;;;;4142324;28;20110;-71
2021/08/17 01:50:15;;;;;;;23.02;11.38;;;14.70;99.90;;;;;;4142658;28;20062;-72
2021/08/17 01:52:15;;;;;;;29.88;13.70;;;14.80;99.90;;;;;;4143428;28;20065;-72
2021/08/17 01:54:17;;;;;;;28.10;12.95;;;14.80;99.90;;;;;;4143712;28;20413;-71
2021/08/17 01:56:18;;;;;;;24.23;12.38;;;14.80;99.90;;;;;;4141794;28;20517;-72
2021/08/17 01:58:23;;;;;;;35.70;14.00;;;14.80;99.90;;;;;;4142762;28;20046;-71
2021/08/17 02:00:24;;;;;;;29.52;14.68;;;14.80;99.90;;;;;;4138083;28;20068;-72
2021/08/17 02:02:24;;;;;;;26.25;12.82;;;14.70;99.90;;;;;;4141126;28;20074;-72
2021/08/17 02:04:28;;;;;;;29.70;15.55;;;14.70;99.90;;;;;;4143485;28;20053;-72
2021/08/17 02:06:28;;;;;;;29.02;14.75;;;14.70;99.90;;;;;;4141183;28;20057;-71
2021/08/17 02:08:30;;;;;;;31.48;14.90;;;14.70;99.90;;;;;;4141819;28;20033;-72
2021/08/17 02:10:30;;;;;;;29.25;14.63;;;14.70;99.90;;;;;;4139651;28;20410;-71
2021/08/17 02:12:31;;;;;;;32.08;16.02;;;14.70;99.90;;;;;;4136798;28;20061;-72
2021/08/17 02:14:32;;;;;;;32.53;16.65;;;14.80;99.90;;;;;;4143838;28;20113;-71
2021/08/17 02:16:32;;;;;;;37.15;18.42;;;14.80;99.90;;;;;;4136667;28;20042;-72
2021/08/17 02:18:35;;;;;;;32.90;16.38;;;14.80;99.90;;;;;;4143583;28;20116;-72
2021/08/17 02:20:36;;;;;;;;;;;14.80;99.90;;;;;;4143703;28;20080;-71
2021/08/17 02:22:36;;;;;;;25.13;13.02;;;14.80;99.90;;;;;;4143298;28;19945;-72
2021/08/17 02:24:37;;;;;;;32.70;16.10;;;14.80;99.90;;;;;;4143584;28;20034;-72
2021/08/17 02:26:38;;;;;;;32.25;16.38;;;14.90;99.90;;;;;;4135374;28;20042;-72
2021/08/17 02:28:39;;;;;;;33.03;16.20;;;14.90;99.90;;;;;;4143526;28;20042;-71
2021/08/17 02:30:39;;;;;;;32.30;17.40;;;14.80;99.90;;;;;;4142129;28;20030;-72
2021/08/17 02:32:40;;;;;;;37.20;17.63;;;14.90;99.90;;;;;;4143441;28;20156;-72
2021/08/17 02:34:41;;;;;;;32.78;16.00;;;14.90;99.90;;;;;;4141680;28;20046;-71
2021/08/17 02:36:41;;;;;;;31.50;16.10;;;14.90;99.90;;;;;;4143180;28;20848;-71
2021/08/17 02:38:42;;;;;;;33.40;17.88;;;14.90;99.90;;;;;;4142705;28;20135;-71
2021/08/17 02:40:43;;;;;;;43.28;20.88;;;14.90;99.90;;;;;;4143001;28;20116;-72
2021/08/17 02:42:43;;;;;;;38.38;19.98;;;14.80;99.90;;;;;;4143268;28;20068;-71
2021/08/17 02:44:44;;;;;;;35.75;17.75;;;14.80;99.90;;;;;;4141916;28;20065;-71
2021/08/17 02:46:45;;;;;;;42.92;20.83;;;14.80;99.90;;;;;;4128914;28;20498;-72
2021/08/17 02:48:45;;;;;;;35.60;18.13;;;14.80;99.90;;;;;;4145575;28;20030;-71
2021/08/17 02:50:46;;;;;;;40.40;19.60;;;14.80;99.90;;;;;;4143021;28;20046;-71
2021/08/17 02:52:47;;;;;;;32.92;18.27;;;14.80;99.90;;;;;;4130219;28;20686;-72
2021/08/17 02:54:50;;;;;;;37.20;18.98;;;14.90;99.90;;;;;;4128461;28;20042;-71
2021/08/17 02:56:51;;;;;;;37.28;19.50;;;14.90;99.90;;;;;;4132854;28;20068;-71
2021/08/17 02:58:51;;;;;;;41.10;19.33;;;14.90;99.90;;;;;;4138183;28;20037;-71
2021/08/17 03:00:52;;;;;;;35.85;19.33;;;14.90;99.90;;;;;;4158384;28;20075;-72
2021/08/17 03:02:52;;;;;;;39.05;19.92;;;14.90;99.90;;;;;;4154855;28;20088;-72
2021/08/17 03:04:53;;;;;;;41.97;21.25;;;14.90;99.90;;;;;;4145052;28;20049;-71
2021/08/17 03:06:55;;;;;;;41.08;20.95;;;14.90;99.90;;;;;;4137146;28;20129;-72
2021/08/17 03:08:55;;;;;;;40.88;19.70;;;14.90;99.90;;;;;;4131773;28;20044;-71
2021/08/17 03:10:56;;;;;;;41.10;19.02;;;14.90;99.90;;;;;;4140814;28;20042;-71
2021/08/17 03:12:56;;;;;;;38.05;19.23;;;14.90;99.90;;;;;;4154712;28;20116;-71
2021/08/17 03:14:57;;;;;;;39.97;19.33;;;14.90;99.90;;;;;;4157447;28;20038;-72
2021/08/17 03:16:58;;;;;;;39.22;20.63;;;14.90;99.90;;;;;;4157661;28;20036;-71
2021/08/17 03:19:00;;;;;;;39.92;20.83;;;14.90;99.90;;;;;;4157578;28;20094;-71
2021/08/17 03:21:01;;;;;;;37.22;18.40;;;14.80;99.90;;;;;;4157266;28;20049;-71
2021/08/17 03:23:02;;;;;;;41.63;19.98;;;14.80;99.90;;;;;;4145037;28;20034;-71
2021/08/17 03:25:04;;;;;;;42.35;21.60;;;14.80;99.90;;;;;;4142675;28;20134;-71
2021/08/17 03:27:05;;;;;;;42.55;20.88;;;14.80;99.90;;;;;;4155412;28;20037;-71
2021/08/17 03:29:05;;;;;;;33.13;17.63;;;14.80;99.90;;;;;;4159184;28;20601;-71
2021/08/17 03:31:06;;;;;;;43.05;21.65;;;14.80;99.90;;;;;;4157521;28;20044;-71
2021/08/17 03:33:07;;;;;;;40.03;21.15;;;14.80;99.90;;;;;;4148247;28;20611;-72
2021/08/17 03:35:09;;;;;;;40.55;20.92;;;14.80;99.90;;;;;;4125221;28;20120;-71
2021/08/17 03:37:10;;;;;;;42.15;20.90;;;14.80;99.90;;;;;;4141968;28;20061;-71
2021/08/17 03:39:11;;;;;;;47.25;22.00;;;14.80;99.90;;;;;;4135735;28;20441;-71
2021/08/17 03:41:11;;;;;;;34.58;18.20;;;14.80;99.90;;;;;;4140492;28;20072;-71
2021/08/17 03:43:12;;;;;;;37.97;20.67;;;14.80;99.90;;;;;;4142596;28;20042;-71
2021/08/17 03:45:16;;;;;;;39.63;20.02;;;14.80;99.90;;;;;;4132326;28;20046;-71
2021/08/17 03:47:16;;;;;;;44.20;21.40;;;14.80;99.90;;;;;;4141393;28;20049;-71
2021/08/17 03:49:17;;;;;;;42.92;21.42;;;14.80;99.90;;;;;;4154130;28;20033;-71
2021/08/17 03:51:18;;;;;;;43.45;21.85;;;14.80;99.90;;;;;;4158828;28;20079;-71
2021/08/17 03:53:18;;;;;;;38.28;20.13;;;14.80;99.90;;;;;;4159025;28;20041;-71
2021/08/17 03:55:20;;;;;;;39.60;19.10;;;14.80;99.90;;;;;;4159387;28;20068;-71
2021/08/17 03:57:21;;;;;;;45.35;20.65;;;14.80;99.90;;;;;;4156672;28;20041;-71
2021/08/17 03:59:21;;;;;;;36.95;19.60;;;14.80;99.90;;;;;;4146121;28;20056;-72
2021/08/17 04:01:22;;;;;;;39.10;20.65;;;14.90;99.90;;;;;;4144105;28;20038;-71
2021/08/17 04:03:22;;;;;;;42.78;20.42;;;14.80;99.90;;;;;;4139576;28;20138;-72
2021/08/17 04:05:23;;;;;;;35.15;19.75;;;14.80;99.90;;;;;;4146768;28;20049;-71
2021/08/17 04:07:23;;;;;;;40.72;20.33;;;14.80;99.90;;;;;;4158400;28;20073;-71
2021/08/17 04:09:24;;;;;;;44.17;21.08;;;14.70;99.90;;;;;;4145583;28;20034;-71
2021/08/17 04:11:24;;;;;;;40.20;20.40;;;14.70;99.90;;;;;;4145481;28;20042;-72
2021/08/17 04:13:25;;;;;;;40.10;19.90;;;14.70;99.90;;;;;;4145561;28;20037;-71
2021/08/17 04:15:26;;;;;;;37.40;19.52;;;14.70;99.90;;;;;;4160524;28;20045;-71
2021/08/17 04:17:26;;;;;;;41.30;20.27;;;14.60;99.90;;;;;;4143473;28;20580;-71
2021/08/17 04:19:27;;;;;;;38.75;19.45;;;14.60;99.90;;;;;;4143827;28;20041;-72
2021/08/17 04:21:28;;;;;;;39.70;20.98;;;14.60;99.90;;;;;;4145601;28;20038;-72
2021/08/17 04:23:29;;;;;;;43.75;21.48;;;14.60;99.90;;;;;;4144034;28;20038;-71
2021/08/17 04:25:29;;;;;;;43.75;21.55;;;14.60;99.90;;;;;;4145315;28;20096;-72
2021/08/17 04:27:30;;;;;;;41.95;21.70;;;14.60;99.90;;;;;;4142451;28;20592;-71
2021/08/17 04:29:31;;;;;;;44.13;20.70;;;14.50;99.90;;;;;;4140618;28;20049;-71
2021/08/17 04:31:32;;;;;;;41.22;20.13;;;14.50;99.90;;;;;;4144481;28;20072;-71
2021/08/17 04:33:32;;;;;;;41.40;21.42;;;14.60;99.90;;;;;;4144090;28;20049;-71
2021/08/17 04:35:33;;;;;;;39.42;20.15;;;14.50;99.90;;;;;;4145231;28;20046;-71
2021/08/17 04:37:34;;;;;;;43.00;19.75;;;14.60;99.90;;;;;;4144312;28;20034;-71
2021/08/17 04:39:35;;;;;;;47.25;23.40;;;14.50;99.90;;;;;;4143773;28;20040;-71
2021/08/17 04:41:35;;;;;;;38.97;20.30;;;14.50;99.90;;;;;;4145256;28;20089;-71
2021/08/17 04:43:36;;;;;;;45.03;22.38;;;14.50;99.90;;;;;;4143002;28;20053;-72
2021/08/17 04:45:37;;;;;;;38.47;20.25;;;14.40;99.90;;;;;;4145314;28;20034;-72
2021/08/17 04:47:48;;;;;;;39.03;21.15;;;14.40;99.90;;;;;;4144861;28;20105;-71
2021/08/17 04:49:48;;;;;;;44.17;21.40;;;14.50;99.90;;;;;;4143400;28;20080;-71
2021/08/17 04:51:49;;;;;;;44.55;21.80;;;14.50;99.90;;;;;;4143831;28;20656;-71
2021/08/17 04:53:50;;;;;;;45.13;21.63;;;14.50;99.90;;;;;;4136857;28;20113;-71
2021/08/17 04:55:50;;;;;;;39.65;19.92;;;14.50;99.90;;;;;;4120943;28;20454;-72
2021/08/17 04:57:54;;;;;;;45.63;21.80;;;14.50;99.90;;;;;;4144755;28;20030;-71
2021/08/17 04:59:55;;;;;;;36.22;19.25;;;14.50;99.90;;;;;;4155227;28;20091;-71
2021/08/17 05:01:55;;;;;;;36.17;18.63;;;14.60;99.90;;;;;;4161118;28;20038;-71
2021/08/17 05:03:57;;;;;;;38.30;19.10;;;14.60;99.90;;;;;;4154098;28;20123;-71
2021/08/17 05:05:58;;;;;;;42.37;21.23;;;14.60;99.90;;;;;;4144521;28;20128;-71
2021/08/17 05:07:58;;;;;;;46.25;21.98;;;14.60;99.90;;;;;;4144357;28;20433;-71
2021/08/17 05:09:59;;;;;;;38.33;20.17;;;14.60;99.90;;;;;;4144361;28;20662;-71
2021/08/17 05:11:59;;;;;;;45.97;22.20;;;14.60;99.90;;;;;;4144845;28;20034;-71
2021/08/17 05:14:00;;;;;;;44.45;21.80;;;14.60;99.90;;;;;;4144671;28;20033;-71
2021/08/17 05:16:01;;;;;;;51.55;23.02;;;14.70;99.90;;;;;;4144159;28;20046;-71
2021/08/17 05:18:04;;;;;;;40.10;20.90;;;14.60;99.90;;;;;;4144763;28;20109;-71
2021/08/17 05:20:07;;;;;;;38.92;19.70;;;14.60;99.90;;;;;;4141755;28;20053;-72
2021/08/17 05:22:08;;;;;;;32.95;17.77;;;14.70;99.90;;;;;;4142269;28;20029;-72
2021/08/17 05:24:09;;;;;;;33.17;18.05;;;14.70;99.90;;;;;;4136520;28;20555;-72
2021/08/17 05:26:09;;;;;;;39.40;19.55;;;14.70;99.90;;;;;;4155182;28;20486;-73
2021/08/17 05:28:10;;;;;;;40.03;20.15;;;14.80;99.90;;;;;;4160599;28;20044;-73
2021/08/17 05:30:11;;;;;;;35.53;18.88;;;14.80;99.90;;;;;;4143357;28;20073;-74
2021/08/17 05:32:12;;;;;;;40.20;19.95;;;14.80;99.90;;;;;;4143581;28;20466;-71
2021/08/17 05:34:12;;;;;;;41.00;20.20;;;14.80;99.90;;;;;;4142182;28;20092;-73
2021/08/17 05:36:13;;;;;;;51.70;21.67;;;14.80;99.90;;;;;;4144228;28;20034;-73
2021/08/17 05:38:13;;;;;;;43.28;20.63;;;14.80;99.90;;;;;;4131183;28;20075;-71
2021/08/17 05:40:14;;;;;;;42.95;20.08;;;14.70;99.90;;;;;;4145341;28;20128;-72
2021/08/17 05:42:15;;;;;;;43.92;21.02;;;14.80;99.90;;;;;;4157572;28;20045;-71
2021/08/17 05:44:17;;;;;;;41.50;19.85;;;14.80;99.90;;;;;;4151873;28;20424;-72
2021/08/17 05:46:17;;;;;;;38.40;19.20;;;14.80;99.90;;;;;;4154941;28;20034;-72
2021/08/17 05:48:18;;;;;;;37.38;17.67;;;14.80;99.90;;;;;;4159389;28;20052;-72
2021/08/17 05:50:19;;;;;;;42.72;20.55;;;14.90;99.90;;;;;;4155088;28;20045;-72
2021/08/17 05:52:19;;;;;;;44.42;20.08;;;14.90;99.90;;;;;;4149267;28;20049;-72
2021/08/17 05:54:20;;;;;;;42.63;20.60;;;15.00;99.90;;;;;;4145844;28;20041;-72
2021/08/17 05:56:21;;;;;;;45.03;20.15;;;15.00;99.90;;;;;;4149218;28;20068;-71
2021/08/17 05:58:21;;;;;;;44.28;22.58;;;14.90;99.90;;;;;;4149060;28;20041;-72
2021/08/17 06:00:22;;;;;;;45.60;20.63;;;14.90;99.90;;;;;;4148015;28;20045;-72
2021/08/17 06:02:23;;;;;;;37.63;19.85;;;15.00;99.90;;;;;;4153869;28;20033;-72
2021/08/17 06:04:23;;;;;;;38.35;18.38;;;15.00;99.90;;;;;;4153657;28;20461;-72
2021/08/17 06:06:24;;;;;;;37.08;18.77;;;15.10;99.90;;;;;;4154373;28;20037;-72
2021/08/17 06:08:26;;;;;;;39.42;20.38;;;15.10;99.90;;;;;;4152429;28;20030;-71
2021/08/17 06:10:26;;;;;;;37.65;18.73;;;15.10;99.90;;;;;;4154748;28;20052;-72
2021/08/17 06:12:27;;;;;;;44.03;21.00;;;15.20;99.90;;;;;;4154174;28;20038;-72
2021/08/17 06:14:28;;;;;;;37.08;19.08;;;15.10;99.90;;;;;;4138115;28;20120;-72
2021/08/17 06:16:28;;;;;;;41.22;20.13;;;15.20;99.90;;;;;;4156328;28;20102;-72
2021/08/17 06:18:29;;;;;;;36.13;18.95;;;15.20;99.90;;;;;;4154796;28;20033;-72
2021/08/17 06:20:30;;;;;;;36.88;18.98;;;15.30;99.90;;;;;;4153558;28;20113;-71
2021/08/17 06:22:30;;;;;;;39.25;20.02;;;15.30;99.90;;;;;;4155557;28;20033;-72
2021/08/17 06:24:31;;;;;;;37.80;18.40;;;15.30;99.90;;;;;;4156415;28;20033;-72
2021/08/17 06:26:33;;;;;;;37.28;19.27;;;15.40;99.90;;;;;;4153854;28;20533;-72
2021/08/17 06:28:33;;;;;;;41.33;19.58;;;15.40;99.90;;;;;;4154561;28;20409;-72
2021/08/17 06:30:35;;;;;;;35.47;17.02;;;15.50;99.90;;;;;;4156325;28;20029;-72
2021/08/17 06:32:35;;;;;;;36.33;19.08;;;15.50;99.90;;;;;;4153960;28;20522;-72
2021/08/17 06:34:36;;;;;;;41.05;19.08;;;15.50;99.90;;;;;;4155041;28;20064;-73
2021/08/17 06:36:37;;;;;;;39.25;20.10;;;15.50;99.90;;;;;;4155244;28;20470;-74
2021/08/17 06:38:37;;;;;;;38.97;19.65;;;15.50;99.90;;;;;;4136939;28;20702;-72
2021/08/17 06:40:38;;;;;;;40.50;19.67;;;15.50;99.90;;;;;;4155843;28;20033;-71
2021/08/17 06:42:39;;;;;;;35.38;18.45;;;15.50;99.90;;;;;;4155421;28;20041;-70
2021/08/17 06:44:40;;;;;;;34.63;17.25;;;15.50;99.90;;;;;;4155442;28;20851;-71
2021/08/17 06:46:40;;;;;;;38.40;20.20;;;15.60;99.90;;;;;;4155686;28;20033;-70
2021/08/17 06:48:41;;;;;;;36.38;17.73;;;15.60;99.90;;;;;;4150361;28;20045;-71
2021/08/17 06:50:42;;;;;;;27.83;15.75;;;15.60;99.90;;;;;;4149535;28;20546;-70
2021/08/17 06:52:43;;;;;;;33.53;17.38;;;15.60;99.90;;;;;;4151516;28;20033;-71
2021/08/17 06:54:44;;;;;;;33.03;17.33;;;15.70;99.90;;;;;;4149674;28;20052;-70
2021/08/17 06:56:44;;;;;;;39.72;19.65;;;15.70;99.90;;;;;;4152074;28;20045;-71
2021/08/17 06:58:45;;;;;;;37.45;18.75;;;15.70;99.90;;;;;;4145777;28;20034;-71
2021/08/17 07:00:47;;;;;;;41.58;19.70;;;15.70;99.90;;;;;;4151281;28;20036;-71
2021/08/17 07:02:48;;;;;;;36.63;19.13;;;15.70;99.90;;;;;;4152443;28;20037;-71
2021/08/17 07:04:48;;;;;;;38.63;18.80;;;15.80;99.90;;;;;;4150153;28;20264;-71
2021/08/17 07:06:49;;;;;;;41.78;19.42;;;15.80;99.90;;;;;;4148759;28;20038;-71
2021/08/17 07:08:50;;;;;;;37.75;19.25;;;15.80;99.90;;;;;;4146677;28;20061;-71
2021/08/17 07:10:51;;;;;;;40.00;18.83;;;15.80;99.90;;;;;;4148772;28;20530;-71
2021/08/17 07:12:51;;;;;;;35.00;17.90;;;15.90;99.90;;;;;;4154014;28;20050;-70
2021/08/17 07:14:52;;;;;;;40.53;18.77;;;15.90;99.90;;;;;;4145371;28;20043;-71
2021/08/17 07:16:53;;;;;;;32.08;17.50;;;15.90;99.90;;;;;;4151463;28;20041;-71
2021/08/17 07:18:53;;;;;;;40.70;19.58;;;16.00;99.90;;;;;;4151179;28;20042;-71
2021/08/17 07:20:54;;;;;;;34.72;17.33;;;15.90;99.90;;;;;;4153954;28;20026;-71
2021/08/17 07:22:55;;;;;;;38.03;19.38;;;16.00;99.90;;;;;;4151745;28;20029;-71
2021/08/17 07:24:56;;;;;;;32.90;17.40;;;16.00;99.90;;;;;;4151459;28;20057;-71
2021/08/17 07:26:56;;;;;;;40.03;18.45;;;16.00;99.90;;;;;;4151911;28;20026;-71
2021/08/17 07:28:57;;;;;;;33.25;17.52;;;16.00;99.90;;;;;;4133080;28;20026;-71
2021/08/17 07:30:57;;;;;;;40.92;20.13;;;16.00;99.90;;;;;;4139051;28;20622;-71
2021/08/17 07:32:58;;;;;;;29.98;16.38;;;16.00;99.90;;;;;;4148448;28;20285;-71
2021/08/17 07:34:59;;;;;;;35.72;18.27;;;16.10;99.90;;;;;;4138575;28;20431;-71
2021/08/17 07:37:00;;;;;;;31.90;17.52;;;16.10;99.90;;;;;;4145004;28;20040;-71
2021/08/17 07:39:00;;;;;;;33.97;17.35;;;16.10;99.90;;;;;;4167683;28;20509;-71
2021/08/17 07:41:01;;;;;;;32.30;17.08;;;16.10;99.90;;;;;;4145916;28;20053;-71
2021/08/17 07:43:01;;;;;;;32.40;16.58;;;16.20;99.90;;;;;;4153612;28;20079;-71
2021/08/17 07:45:04;;;;;;;32.85;17.67;;;16.30;99.90;;;;;;4153033;28;20037;-71
2021/08/17 07:47:04;;;;;;;38.80;17.80;;;16.20;99.90;;;;;;4150971;28;20034;-71
2021/08/17 07:49:05;;;;;;;31.55;15.88;;;16.20;99.90;;;;;;4151616;28;20712;-71
2021/08/17 07:51:06;;;;;;;43.22;19.30;;;16.30;99.90;;;;;;4144410;28;20030;-71
2021/08/17 07:53:09;;;;;;;31.88;16.67;;;16.40;99.90;;;;;;4148143;28;20389;-71
2021/08/17 07:55:15;;;;;;;30.13;16.85;;;16.30;99.90;;;;;;4152753;28;20052;-71
2021/08/17 07:57:15;;;;;;;37.47;18.98;;;16.40;99.90;;;;;;4152051;28;20049;-71
2021/08/17 07:59:16;;;;;;;34.40;17.65;;;16.40;99.90;;;;;;4150955;28;20148;-71
2021/08/17 08:01:17;;;;;;;30.88;16.40;;;16.40;99.90;;;;;;4152070;28;20029;-71
2021/08/17 08:03:17;;;;;;;32.28;17.48;;;16.50;99.90;;;;;;4151841;28;20593;-71
2021/08/17 08:05:18;;;;;;;39.63;20.10;;;16.50;99.90;;;;;;4153660;28;20034;-71
2021/08/17 08:07:18;;;;;;;37.25;18.33;;;16.40;99.90;;;;;;4149807;28;20041;-71
2021/08/17 08:09:19;;;;;;;33.38;17.10;;;16.40;99.90;;;;;;4146664;28;20264;-71
2021/08/17 08:11:20;;;;;;;34.80;17.40;;;16.40;99.90;;;;;;4144774;28;20045;-71
2021/08/17 08:13:21;;;;;;;39.00;18.95;;;16.50;99.90;;;;;;4144099;28;20048;-71
2021/08/17 08:15:21;;;;;;;35.45;18.08;;;16.40;99.90;;;;;;4142728;28;20038;-71
2021/08/17 08:17:22;;;;;;;31.67;17.10;;;16.50;99.90;;;;;;4147963;28;20173;-71
2021/08/17 08:19:22;;;;;;;33.72;17.27;;;16.50;99.90;;;;;;4145730;28;20301;-71
2021/08/17 08:21:23;;;;;;;32.20;18.63;;;16.60;99.90;;;;;;4140345;28;20030;-71
2021/08/17 08:23:24;;;;;;;34.80;18.30;;;16.60;99.90;;;;;;4144263;28;20501;-71
2021/08/17 08:25:25;;;;;;;30.83;18.00;;;16.60;99.90;;;;;;4144812;28;20390;-71
2021/08/17 08:27:25;;;;;;;35.28;19.17;;;16.60;99.90;;;;;;4153589;28;20108;-71
2021/08/17 08:29:26;;;;;;;37.13;18.70;;;16.60;99.90;;;;;;4151227;28;20034;-71
2021/08/17 08:31:26;;;;;;;39.33;18.65;;;16.60;99.90;;;;;;4152114;28;20057;-71
2021/08/17 08:33:27;;;;;;;38.42;18.63;;;16.60;99.90;;;;;;4152818;28;20481;-71
2021/08/17 08:35:28;;;;;;;38.10;18.08;;;16.60;99.90;;;;;;4152900;28;20168;-71
2021/08/17 08:37:29;;;;;;;40.85;18.90;;;16.70;99.90;;;;;;4152153;28;20033;-71
2021/08/17 08:39:30;;;;;;;37.58;17.95;;;16.70;99.90;;;;;;4152993;28;20037;-71
2021/08/17 08:41:31;;;;;;;33.95;17.33;;;16.70;99.90;;;;;;4154003;28;20385;-71
2021/08/17 08:43:31;;;;;;;35.83;17.90;;;16.80;99.90;;;;;;4152620;28;20107;-71
2021/08/17 08:45:32;;;;;;;37.92;18.77;;;16.80;99.90;;;;;;4155518;28;20550;-71
2021/08/17 08:47:40;;;;;;;38.38;18.63;;;16.80;99.90;;;;;;4154565;28;20037;-71
2021/08/17 08:49:42;;;;;;;31.05;16.30;;;16.90;99.90;;;;;;4151385;28;20595;-71
2021/08/17 08:51:43;;;;;;;33.75;17.30;;;16.90;99.90;;;;;;4155721;28;20505;-71
2021/08/17 08:53:44;;;;;;;37.17;17.35;;;16.80;99.90;;;;;;4155317;28;20265;-71
2021/08/17 08:55:44;;;;;;;27.23;13.98;;;16.80;99.90;;;;;;4154465;28;20041;-71
2021/08/17 08:57:45;;;;;;;33.72;16.58;;;16.90;99.90;;;;;;4153693;28;20049;-71
2021/08/17 08:59:45;;;;;;;41.50;16.13;;;16.90;99.90;;;;;;4152372;28;20034;-71
2021/08/17 09:01:47;;;;;;;29.63;15.40;;;17.00;99.90;;;;;;4151816;28;20034;-71
2021/08/17 09:03:52;;;;;;;30.33;15.80;;;17.00;99.90;;;;;;4154969;28;20067;-71
2021/08/17 09:05:53;;;;;;;29.00;15.35;;;17.00;99.90;;;;;;4155326;28;20060;-71
2021/08/17 09:07:56;;;;;;;30.05;15.05;;;17.10;99.90;;;;;;4147387;28;20099;-71
2021/08/17 09:10:20;;;;;;;25.65;14.25;;;17.10;99.90;;;;;;4144524;28;20113;-70
2021/08/17 09:12:33;;;;;;;28.63;14.15;;;17.10;99.90;;;;;;4153042;28;20060;-70
2021/08/17 09:14:35;;;;;;;31.02;14.68;;;17.20;99.90;;;;;;4153384;28;20076;-70
2021/08/17 09:16:36;;;;;;;26.25;14.55;;;17.20;99.90;;;;;;4137014;28;20072;-70
2021/08/17 09:18:37;;;;;;;26.20;13.25;;;17.20;99.90;;;;;;4137396;28;20493;-70
2021/08/17 09:20:46;;;;;;;26.85;14.55;;;17.30;99.90;;;;;;4154944;28;20029;-71
2021/08/17 09:22:46;;;;;;;27.92;14.65;;;17.30;99.90;;;;;;4155912;28;20037;-70
2021/08/17 09:24:50;;;;;;;25.58;13.07;;;17.30;99.90;;;;;;4153730;28;20083;-71
2021/08/17 09:26:58;;;;;;;28.20;13.27;;;17.30;99.90;;;;;;4155947;28;20108;-71
2021/08/17 09:29:01;;;;;;;23.98;13.20;;;17.30;99.90;;;;;;4148691;28;20111;-70
2021/08/17 09:31:23;;;;;;;25.83;13.65;;;17.30;99.90;;;;;;4152332;28;20486;-70
2021/08/17 09:33:37;;;;;;;24.88;13.48;;;17.40;99.90;;;;;;4154282;28;20446;-70
2021/08/17 09:35:38;;;;;;;22.77;11.93;;;17.40;99.90;;;;;;4151203;28;20068;-70
2021/08/17 09:37:38;;;;;;;26.13;14.65;;;17.50;99.90;;;;;;4152700;28;20037;-70
2021/08/17 09:39:46;;;;;;;24.25;13.35;;;17.50;99.90;;;;;;4153307;28;20029;-71
2021/08/17 09:41:46;;;;;;;28.23;14.93;;;17.50;99.90;;;;;;4153146;28;20037;-70
2021/08/17 09:44:00;;;;;;;32.10;15.20;;;17.60;99.90;;;;;;4155389;28;20444;-70
2021/08/17 09:46:09;;;;;;;25.27;12.90;;;17.60;99.90;;;;;;4148555;28;20518;-71
2021/08/17 09:48:14;;;;;;;23.15;12.98;;;17.60;99.90;;;;;;4154693;28;20179;-70
2021/08/17 09:50:28;;;;;;;30.35;13.85;;;17.60;99.90;;;;;;4154454;28;20049;-70
2021/08/17 09:52:34;;;;;;;24.90;12.65;;;17.60;99.90;;;;;;4152491;28;20037;-70
2021/08/17 09:54:38;;;;;;;23.17;12.13;;;17.60;99.90;;;;;;4154081;28;20394;-70
2021/08/17 09:56:38;;;;;;;23.88;12.43;;;17.60;99.90;;;;;;4153968;28;20026;-70
2021/08/17 09:58:39;;;;;;;29.65;12.88;;;17.60;99.90;;;;;;4152103;28;20417;-70
2021/08/17 10:00:40;;;;;;;22.70;12.30;;;17.60;99.90;;;;;;4154247;28;20385;-70
2021/08/17 10:02:47;;;;;;;20.15;11.02;;;17.60;99.90;;;;;;4154194;28;20029;-70
2021/08/17 10:04:51;;;;;;;20.02;10.90;;;17.60;99.90;;;;;;4151575;28;20049;-71
2021/08/17 10:06:53;;;;;;;21.60;11.52;;;17.60;99.90;;;;;;4152481;28;20045;-71
2021/08/17 10:08:57;;;;;;;24.08;10.98;;;17.70;99.90;;;;;;4153027;28;20765;-70
2021/08/17 10:10:59;;;;;;;20.80;11.30;;;17.70;99.90;;;;;;4152459;28;20076;-70
2021/08/17 10:12:59;;;;;;;20.50;11.27;;;17.70;99.90;;;;;;4152026;28;20030;-70
2021/08/17 10:15:00;;;;;;;24.23;12.00;;;17.70;99.90;;;;;;4152541;28;20268;-70
2021/08/17 10:17:00;;;;;;;22.30;12.05;;;17.60;99.90;;;;;;4153474;28;20462;-70
2021/08/17 10:19:01;;;;;;;23.63;11.48;;;17.60;99.90;;;;;;4154223;28;20095;-71